PWSweather.com
Personal Weather Stations
Station Observations
KWIPARKF
Flambeau River State Forest, Park Falls, WI 54552

Flambeau River State ForestPark Falls, WI 54552

Lat: 45.81943, Lon: -90.61676

Elevation: 1476

Station Type: Davis Vantage Pro2 Plus

Latest ConditionsUpdated 7:10:01 AM CST Sunday, Nov 18, 2018
Currently Today's Max Today's Min Today's Average
Temperature 5.0°F-15.0°C 9.2°F-12.7°C 3.2°F-16.0°C 7.0°F-13.9°C
Dew Point 1.7°F-16.8°C 6.1°F-14.4°C -0.1°F-17.8°C 3.7°F-15.7°C
Winds Calm Calm Calm -Calm - - Calm Calm
Wind Gusts -- 1.2 mph1.9 kmh - -
Humidity 86% 90% 82% 86%
Pressure 30.32 in1026.8 mb 30.41 in1029.8 mb 30.31 in1026.4 mb -
Hour Temp Dew Point Humidity Winds Wind Gusts Pressure Precip Precip Rate Daily Precip Total
07:10 AM 5.0°F-15.0°C 1.7°F-16.8°C 86% Calm Calm -- 30.32 in1026.8 mb - 0.00 in0.0 mm 0.00 in0.0 mm
07:00 AM 5.1°F-14.9°C 1.6°F-16.9°C 85% Calm Calm -- 30.31 in1026.4 mb - 0.00 in0.0 mm 0.00 in0.0 mm
06:50 AM 5.3°F-14.8°C 1.5°F-16.9°C 84% Calm Calm -- 30.32 in1026.8 mb - 0.00 in0.0 mm 0.00 in0.0 mm
06:40 AM 6.0°F-14.4°C 1.9°F-16.7°C 83% Calm Calm -- 30.32 in1026.8 mb - 0.00 in0.0 mm 0.00 in0.0 mm
06:30 AM 6.7°F-14.1°C 2.4°F-16.4°C 82% Calm Calm -- 30.32 in1026.8 mb - 0.00 in0.0 mm 0.00 in0.0 mm
06:20 AM 7.3°F-13.7°C 3.2°F-16.0°C 83% Calm Calm -- 30.32 in1026.8 mb - 0.00 in0.0 mm 0.00 in0.0 mm
06:10 AM 7.6°F-13.6°C 3.5°F-15.8°C 83% Calm Calm -- 30.33 in1027.1 mb - 0.00 in0.0 mm 0.00 in0.0 mm
06:00 AM 7.7°F-13.5°C 3.9°F-15.6°C 84% Calm Calm 1.2 mph1.9 kmh 30.33 in1027.1 mb - 0.00 in0.0 mm 0.00 in0.0 mm
05:50 AM 7.7°F-13.5°C 3.9°F-15.6°C 84% Calm Calm -- 30.34 in1027.4 mb - 0.00 in0.0 mm 0.00 in0.0 mm
05:40 AM 7.6°F-13.6°C 3.8°F-15.7°C 84% Calm Calm -- 30.34 in1027.4 mb - 0.00 in0.0 mm 0.00 in0.0 mm
05:30 AM 7.5°F-13.6°C 3.7°F-15.7°C 84% Calm Calm -- 30.34 in1027.4 mb - 0.00 in0.0 mm 0.00 in0.0 mm
05:20 AM 7.4°F-13.7°C 3.8°F-15.7°C 85% Calm Calm -- 30.34 in1027.4 mb - 0.00 in0.0 mm 0.00 in0.0 mm
05:10 AM 7.0°F-13.9°C 3.7°F-15.7°C 86% Calm Calm -- 30.34 in1027.4 mb - 0.00 in0.0 mm 0.00 in0.0 mm
05:00 AM 6.5°F-14.2°C 3.7°F-15.7°C 88% Calm Calm -- 30.34 in1027.4 mb - 0.00 in0.0 mm 0.00 in0.0 mm
04:50 AM 5.7°F-14.6°C 3.1°F-16.1°C 89% Calm Calm -- 30.34 in1027.4 mb - 0.00 in0.0 mm 0.00 in0.0 mm
04:40 AM 4.5°F-15.3°C 2.3°F-16.5°C 90% Calm Calm -- 30.34 in1027.4 mb - 0.00 in0.0 mm 0.00 in0.0 mm
04:30 AM 3.5°F-15.8°C 1.0°F-17.2°C 89% Calm Calm -- 30.34 in1027.4 mb - 0.00 in0.0 mm 0.00 in0.0 mm
04:20 AM 3.2°F-16.0°C -0.1°F-17.8°C 86% Calm Calm -- 30.34 in1027.4 mb - 0.00 in0.0 mm 0.00 in0.0 mm
04:10 AM 3.4°F-15.9°C 0.2°F-17.7°C 86% Calm Calm -- 30.34 in1027.4 mb - 0.00 in0.0 mm 0.00 in0.0 mm
04:00 AM 3.8°F-15.7°C 0.3°F-17.6°C 85% Calm Calm -- 30.34 in1027.4 mb - 0.00 in0.0 mm 0.00 in0.0 mm
03:50 AM 4.5°F-15.3°C 0.7°F-17.4°C 84% Calm Calm -- 30.35 in1027.8 mb - 0.00 in0.0 mm 0.00 in0.0 mm
03:40 AM 4.9°F-15.1°C 1.1°F-17.2°C 84% Calm Calm -- 30.35 in1027.8 mb - 0.00 in0.0 mm 0.00 in0.0 mm
03:30 AM 5.5°F-14.7°C 2.0°F-16.7°C 85% Calm Calm -- 30.34 in1027.4 mb - 0.00 in0.0 mm 0.00 in0.0 mm
03:20 AM 6.1°F-14.4°C 2.6°F-16.3°C 85% Calm Calm -- 30.35 in1027.8 mb - 0.00 in0.0 mm 0.00 in0.0 mm
03:10 AM 6.6°F-14.1°C 3.1°F-16.1°C 85% Calm Calm -- 30.35 in1027.8 mb - 0.00 in0.0 mm 0.00 in0.0 mm
03:00 AM 7.1°F-13.8°C 3.5°F-15.8°C 85% Calm Calm -- 30.36 in1028.1 mb - 0.00 in0.0 mm 0.00 in0.0 mm
02:50 AM 7.5°F-13.6°C 3.9°F-15.6°C 85% Calm Calm -- 30.37 in1028.4 mb - 0.00 in0.0 mm 0.00 in0.0 mm
02:40 AM 8.0°F-13.3°C 4.4°F-15.3°C 85% Calm Calm -- 30.37 in1028.4 mb - 0.00 in0.0 mm 0.00 in0.0 mm
02:30 AM 8.3°F-13.2°C 5.0°F-15.0°C 86% Calm Calm -- 30.38 in1028.8 mb - 0.00 in0.0 mm 0.00 in0.0 mm
02:20 AM 8.6°F-13.0°C 5.3°F-14.8°C 86% Calm Calm -- 30.38 in1028.8 mb - 0.00 in0.0 mm 0.00 in0.0 mm
02:10 AM 8.8°F-12.9°C 5.5°F-14.7°C 86% Calm Calm -- 30.38 in1028.8 mb - 0.00 in0.0 mm 0.00 in0.0 mm
02:00 AM 9.0°F-12.8°C 5.7°F-14.6°C 86% Calm Calm -- 30.39 in1029.1 mb - 0.00 in0.0 mm 0.00 in0.0 mm
01:50 AM 9.2°F-12.7°C 5.9°F-14.5°C 86% Calm Calm -- 30.39 in1029.1 mb - 0.00 in0.0 mm 0.00 in0.0 mm
01:40 AM 9.2°F-12.7°C 6.1°F-14.4°C 87% Calm Calm -- 30.40 in1029.5 mb - 0.00 in0.0 mm 0.00 in0.0 mm
01:30 AM 9.0°F-12.8°C 5.9°F-14.5°C 87% Calm Calm -- 30.40 in1029.5 mb - 0.00 in0.0 mm 0.00 in0.0 mm
01:20 AM 8.8°F-12.9°C 5.7°F-14.6°C 87% Calm Calm -- 30.40 in1029.5 mb - 0.00 in0.0 mm 0.00 in0.0 mm
01:10 AM 8.7°F-12.9°C 5.7°F-14.6°C 87% Calm Calm -- 30.40 in1029.5 mb - 0.00 in0.0 mm 0.00 in0.0 mm
01:00 AM 8.8°F-12.9°C 6.0°F-14.4°C 88% Calm Calm -- 30.40 in1029.5 mb - 0.00 in0.0 mm 0.00 in0.0 mm
12:50 AM 8.7°F-12.9°C 5.9°F-14.5°C 88% Calm Calm -- 30.41 in1029.8 mb - 0.00 in0.0 mm 0.00 in0.0 mm
12:40 AM 8.4°F-13.1°C 5.6°F-14.7°C 88% Calm Calm -- 30.41 in1029.8 mb - 0.00 in0.0 mm 0.00 in0.0 mm
12:30 AM 8.3°F-13.2°C 5.2°F-14.9°C 87% Calm Calm -- 30.41 in1029.8 mb - 0.00 in0.0 mm 0.00 in0.0 mm
12:20 AM 8.5°F-13.1°C 5.7°F-14.6°C 88% Calm Calm -- 30.41 in1029.8 mb - 0.00 in0.0 mm 0.00 in0.0 mm
12:10 AM 8.6°F-13.0°C 5.8°F-14.6°C 88% Calm Calm -- 30.41 in1029.8 mb - 0.00 in0.0 mm 0.00 in0.0 mm
12:00 AM 8.7°F-12.9°C 5.9°F-14.5°C 88% Calm Calm -- 30.41 in1029.8 mb - 0.00 in0.0 mm 0.00 in0.0 mm